sensor_id;sensor_type;location;lat;lon;timestamp;P1;durP1;ratioP1;P2;durP2;ratioP2
12956;SDS011;6543;48.836;10.092;2023-05-06T00:01:31;9.93;;;9.03;;
12956;SDS011;6543;48.836;10.092;2023-05-06T00:04:00;11.40;;;10.40;;
12956;SDS011;6543;48.836;10.092;2023-05-06T00:06:27;13.33;;;11.93;;
12956;SDS011;6543;48.836;10.092;2023-05-06T00:08:54;14.20;;;12.70;;
12956;SDS011;6543;48.836;10.092;2023-05-06T00:11:20;15.67;;;12.03;;
12956;SDS011;6543;48.836;10.092;2023-05-06T00:13:47;12.43;;;11.40;;
12956;SDS011;6543;48.836;10.092;2023-05-06T00:16:14;13.17;;;11.90;;
12956;SDS011;6543;48.836;10.092;2023-05-06T00:18:41;12.10;;;10.90;;
12956;SDS011;6543;48.836;10.092;2023-05-06T00:21:09;11.83;;;10.67;;
12956;SDS011;6543;48.836;10.092;2023-05-06T00:23:36;11.87;;;9.90;;
12956;SDS011;6543;48.836;10.092;2023-05-06T00:26:03;11.13;;;10.13;;
12956;SDS011;6543;48.836;10.092;2023-05-06T00:28:31;11.90;;;10.77;;
12956;SDS011;6543;48.836;10.092;2023-05-06T00:30:58;11.60;;;10.47;;
12956;SDS011;6543;48.836;10.092;2023-05-06T00:33:25;11.17;;;9.83;;
12956;SDS011;6543;48.836;10.092;2023-05-06T00:35:52;12.23;;;11.13;;
12956;SDS011;6543;48.836;10.092;2023-05-06T00:38:20;12.43;;;11.23;;
12956;SDS011;6543;48.836;10.092;2023-05-06T00:40:48;12.70;;;11.47;;
12956;SDS011;6543;48.836;10.092;2023-05-06T00:43:15;13.37;;;11.67;;
12956;SDS011;6543;48.836;10.092;2023-05-06T00:45:42;15.50;;;11.30;;
12956;SDS011;6543;48.836;10.092;2023-05-06T00:48:09;12.73;;;11.53;;
12956;SDS011;6543;48.836;10.092;2023-05-06T00:50:36;12.73;;;11.53;;
12956;SDS011;6543;48.836;10.092;2023-05-06T00:53:05;12.13;;;10.97;;
12956;SDS011;6543;48.836;10.092;2023-05-06T00:55:35;12.77;;;10.10;;
12956;SDS011;6543;48.836;10.092;2023-05-06T00:58:03;13.90;;;10.07;;
12956;SDS011;6543;48.836;10.092;2023-05-06T01:00:32;13.30;;;12.00;;
12956;SDS011;6543;48.836;10.092;2023-05-06T01:02:59;12.33;;;11.17;;
12956;SDS011;6543;48.836;10.092;2023-05-06T01:05:28;16.00;;;12.00;;
12956;SDS011;6543;48.836;10.092;2023-05-06T01:08:02;12.93;;;11.67;;
12956;SDS011;6543;48.836;10.092;2023-05-06T01:10:37;13.57;;;11.70;;
12956;SDS011;6543;48.836;10.092;2023-05-06T01:13:11;13.17;;;11.90;;
12956;SDS011;6543;48.836;10.092;2023-05-06T01:15:46;14.23;;;12.67;;
12956;SDS011;6543;48.836;10.092;2023-05-06T01:18:19;13.53;;;12.23;;
12956;SDS011;6543;48.836;10.092;2023-05-06T01:20:48;14.30;;;12.90;;
12956;SDS011;6543;48.836;10.092;2023-05-06T01:23:18;14.17;;;12.90;;
12956;SDS011;6543;48.836;10.092;2023-05-06T01:25:45;14.23;;;12.83;;
12956;SDS011;6543;48.836;10.092;2023-05-06T01:28:12;17.10;;;14.37;;
12956;SDS011;6543;48.836;10.092;2023-05-06T01:30:42;15.17;;;13.63;;
12956;SDS011;6543;48.836;10.092;2023-05-06T01:33:19;16.17;;;14.43;;
12956;SDS011;6543;48.836;10.092;2023-05-06T01:35:53;17.93;;;15.83;;
12956;SDS011;6543;48.836;10.092;2023-05-06T01:38:32;18.50;;;16.57;;
12956;SDS011;6543;48.836;10.092;2023-05-06T01:41:02;21.90;;;18.23;;
12956;SDS011;6543;48.836;10.092;2023-05-06T01:43:32;20.73;;;18.37;;
12956;SDS011;6543;48.836;10.092;2023-05-06T01:46:02;25.17;;;20.10;;
12956;SDS011;6543;48.836;10.092;2023-05-06T01:48:30;22.47;;;19.83;;
12956;SDS011;6543;48.836;10.092;2023-05-06T01:50:58;22.17;;;19.87;;
12956;SDS011;6543;48.836;10.092;2023-05-06T01:53:25;23.57;;;21.03;;
12956;SDS011;6543;48.836;10.092;2023-05-06T01:55:54;24.60;;;22.00;;
12956;SDS011;6543;48.836;10.092;2023-05-06T01:58:21;25.30;;;21.27;;
12956;SDS011;6543;48.836;10.092;2023-05-06T02:00:47;27.10;;;21.70;;
12956;SDS011;6543;48.836;10.092;2023-05-06T02:03:14;25.53;;;21.40;;
12956;SDS011;6543;48.836;10.092;2023-05-06T02:05:41;24.80;;;22.17;;
12956;SDS011;6543;48.836;10.092;2023-05-06T02:08:08;23.23;;;20.77;;
12956;SDS011;6543;48.836;10.092;2023-05-06T02:10:35;24.13;;;21.53;;
12956;SDS011;6543;48.836;10.092;2023-05-06T02:13:03;28.30;;;22.40;;
12956;SDS011;6543;48.836;10.092;2023-05-06T02:15:31;30.30;;;23.70;;
12956;SDS011;6543;48.836;10.092;2023-05-06T02:17:58;32.13;;;24.67;;
12956;SDS011;6543;48.836;10.092;2023-05-06T02:20:25;28.10;;;24.33;;
12956;SDS011;6543;48.836;10.092;2023-05-06T02:22:52;31.63;;;25.93;;
12956;SDS011;6543;48.836;10.092;2023-05-06T02:25:19;29.60;;;25.13;;
12956;SDS011;6543;48.836;10.092;2023-05-06T02:27:47;31.97;;;25.80;;
12956;SDS011;6543;48.836;10.092;2023-05-06T02:30:15;27.53;;;24.00;;
12956;SDS011;6543;48.836;10.092;2023-05-06T02:32:42;27.47;;;22.40;;
12956;SDS011;6543;48.836;10.092;2023-05-06T02:35:09;25.63;;;21.77;;
12956;SDS011;6543;48.836;10.092;2023-05-06T02:37:36;26.30;;;22.13;;
12956;SDS011;6543;48.836;10.092;2023-05-06T02:40:03;27.63;;;22.27;;
12956;SDS011;6543;48.836;10.092;2023-05-06T02:42:32;24.40;;;21.80;;
12956;SDS011;6543;48.836;10.092;2023-05-06T02:44:59;26.63;;;22.27;;
12956;SDS011;6543;48.836;10.092;2023-05-06T02:47:28;24.20;;;20.87;;
12956;SDS011;6543;48.836;10.092;2023-05-06T02:49:55;24.37;;;20.73;;
12956;SDS011;6543;48.836;10.092;2023-05-06T02:52:22;23.57;;;20.17;;
12956;SDS011;6543;48.836;10.092;2023-05-06T02:54:49;23.60;;;20.30;;
12956;SDS011;6543;48.836;10.092;2023-05-06T02:57:15;23.63;;;20.87;;
12956;SDS011;6543;48.836;10.092;2023-05-06T02:59:42;20.50;;;18.33;;
12956;SDS011;6543;48.836;10.092;2023-05-06T03:02:09;21.00;;;18.40;;
12956;SDS011;6543;48.836;10.092;2023-05-06T03:04:38;20.90;;;18.63;;
12956;SDS011;6543;48.836;10.092;2023-05-06T03:07:05;20.87;;;18.80;;
12956;SDS011;6543;48.836;10.092;2023-05-06T03:09:31;30.33;;;19.37;;
12956;SDS011;6543;48.836;10.092;2023-05-06T03:11:58;21.13;;;18.93;;
12956;SDS011;6543;48.836;10.092;2023-05-06T03:14:26;22.63;;;20.33;;
12956;SDS011;6543;48.836;10.092;2023-05-06T03:16:53;22.57;;;20.17;;
12956;SDS011;6543;48.836;10.092;2023-05-06T03:19:19;22.30;;;20.00;;
12956;SDS011;6543;48.836;10.092;2023-05-06T03:21:48;21.63;;;19.33;;
12956;SDS011;6543;48.836;10.092;2023-05-06T03:24:14;22.10;;;19.83;;
12956;SDS011;6543;48.836;10.092;2023-05-06T03:26:41;22.93;;;20.47;;
12956;SDS011;6543;48.836;10.092;2023-05-06T03:29:08;22.03;;;19.73;;
12956;SDS011;6543;48.836;10.092;2023-05-06T03:31:37;22.53;;;20.23;;
12956;SDS011;6543;48.836;10.092;2023-05-06T03:34:04;23.77;;;21.27;;
12956;SDS011;6543;48.836;10.092;2023-05-06T03:36:31;24.83;;;22.13;;
12956;SDS011;6543;48.836;10.092;2023-05-06T03:38:59;25.27;;;22.40;;
12956;SDS011;6543;48.836;10.092;2023-05-06T03:41:26;28.33;;;23.50;;
12956;SDS011;6543;48.836;10.092;2023-05-06T03:43:53;25.33;;;22.40;;
12956;SDS011;6543;48.836;10.092;2023-05-06T03:46:20;24.27;;;21.77;;
12956;SDS011;6543;48.836;10.092;2023-05-06T03:48:47;25.93;;;23.00;;
12956;SDS011;6543;48.836;10.092;2023-05-06T03:51:14;24.07;;;21.57;;
12956;SDS011;6543;48.836;10.092;2023-05-06T03:53:40;25.53;;;21.40;;
12956;SDS011;6543;48.836;10.092;2023-05-06T03:56:09;26.20;;;21.80;;
12956;SDS011;6543;48.836;10.092;2023-05-06T03:58:36;25.57;;;22.37;;
12956;SDS011;6543;48.836;10.092;2023-05-06T04:01:03;24.33;;;21.93;;
12956;SDS011;6543;48.836;10.092;2023-05-06T04:03:29;23.43;;;21.17;;
12956;SDS011;6543;48.836;10.092;2023-05-06T04:05:56;23.77;;;21.57;;
12956;SDS011;6543;48.836;10.092;2023-05-06T04:08:23;23.33;;;20.87;;
12956;SDS011;6543;48.836;10.092;2023-05-06T04:10:50;24.50;;;21.40;;
12956;SDS011;6543;48.836;10.092;2023-05-06T04:13:18;23.80;;;21.27;;
12956;SDS011;6543;48.836;10.092;2023-05-06T04:15:45;24.43;;;21.73;;
12956;SDS011;6543;48.836;10.092;2023-05-06T04:18:13;24.40;;;21.90;;
12956;SDS011;6543;48.836;10.092;2023-05-06T04:20:44;27.43;;;24.23;;
12956;SDS011;6543;48.836;10.092;2023-05-06T04:23:11;27.50;;;21.23;;
12956;SDS011;6543;48.836;10.092;2023-05-06T04:25:38;24.70;;;22.20;;
12956;SDS011;6543;48.836;10.092;2023-05-06T04:28:07;26.20;;;23.27;;
12956;SDS011;6543;48.836;10.092;2023-05-06T04:30:35;26.67;;;23.10;;
12956;SDS011;6543;48.836;10.092;2023-05-06T04:33:02;25.47;;;22.80;;
12956;SDS011;6543;48.836;10.092;2023-05-06T04:35:29;26.43;;;22.37;;
12956;SDS011;6543;48.836;10.092;2023-05-06T04:37:56;25.67;;;22.93;;
12956;SDS011;6543;48.836;10.092;2023-05-06T04:40:23;26.50;;;23.70;;
12956;SDS011;6543;48.836;10.092;2023-05-06T04:42:51;27.00;;;23.83;;
12956;SDS011;6543;48.836;10.092;2023-05-06T04:45:18;27.77;;;24.87;;
12956;SDS011;6543;48.836;10.092;2023-05-06T04:47:47;28.43;;;25.07;;
12956;SDS011;6543;48.836;10.092;2023-05-06T04:50:14;33.33;;;25.67;;
12956;SDS011;6543;48.836;10.092;2023-05-06T04:52:41;27.80;;;24.80;;
12956;SDS011;6543;48.836;10.092;2023-05-06T04:55:08;27.83;;;23.43;;
12956;SDS011;6543;48.836;10.092;2023-05-06T04:57:36;26.97;;;24.07;;
12956;SDS011;6543;48.836;10.092;2023-05-06T05:00:03;25.53;;;22.77;;
12956;SDS011;6543;48.836;10.092;2023-05-06T05:02:30;27.83;;;23.67;;
12956;SDS011;6543;48.836;10.092;2023-05-06T05:04:59;25.13;;;22.57;;
12956;SDS011;6543;48.836;10.092;2023-05-06T05:07:26;27.20;;;23.53;;
12956;SDS011;6543;48.836;10.092;2023-05-06T05:09:52;25.30;;;22.60;;
12956;SDS011;6543;48.836;10.092;2023-05-06T05:12:19;24.97;;;22.37;;
12956;SDS011;6543;48.836;10.092;2023-05-06T05:14:46;25.43;;;21.17;;
12956;SDS011;6543;48.836;10.092;2023-05-06T05:17:13;23.17;;;20.87;;
12956;SDS011;6543;48.836;10.092;2023-05-06T05:19:40;23.90;;;21.43;;
12956;SDS011;6543;48.836;10.092;2023-05-06T05:22:08;22.20;;;20.00;;
12956;SDS011;6543;48.836;10.092;2023-05-06T05:24:35;22.47;;;20.17;;
12956;SDS011;6543;48.836;10.092;2023-05-06T05:27:02;22.60;;;18.87;;
12956;SDS011;6543;48.836;10.092;2023-05-06T05:29:29;21.33;;;19.23;;
12956;SDS011;6543;48.836;10.092;2023-05-06T05:31:56;23.13;;;19.63;;
12956;SDS011;6543;48.836;10.092;2023-05-06T05:34:23;20.23;;;18.20;;
12956;SDS011;6543;48.836;10.092;2023-05-06T05:36:50;20.67;;;18.43;;
12956;SDS011;6543;48.836;10.092;2023-05-06T05:39:18;19.57;;;17.43;;
12956;SDS011;6543;48.836;10.092;2023-05-06T05:41:45;17.73;;;16.00;;
12956;SDS011;6543;48.836;10.092;2023-05-06T05:44:12;16.57;;;14.93;;
12956;SDS011;6543;48.836;10.092;2023-05-06T05:46:38;16.57;;;14.87;;
12956;SDS011;6543;48.836;10.092;2023-05-06T05:49:06;17.77;;;14.47;;
12956;SDS011;6543;48.836;10.092;2023-05-06T05:51:32;14.33;;;12.83;;
12956;SDS011;6543;48.836;10.092;2023-05-06T05:53:59;14.53;;;13.30;;
12956;SDS011;6543;48.836;10.092;2023-05-06T05:56:27;13.10;;;11.90;;
12956;SDS011;6543;48.836;10.092;2023-05-06T05:58:54;11.90;;;10.80;;
12956;SDS011;6543;48.836;10.092;2023-05-06T06:01:21;13.10;;;11.80;;
12956;SDS011;6543;48.836;10.092;2023-05-06T06:03:48;13.03;;;11.27;;
12956;SDS011;6543;48.836;10.092;2023-05-06T06:06:15;12.93;;;11.63;;
12956;SDS011;6543;48.836;10.092;2023-05-06T06:08:42;11.60;;;10.40;;
12956;SDS011;6543;48.836;10.092;2023-05-06T06:11:09;12.60;;;11.30;;
12956;SDS011;6543;48.836;10.092;2023-05-06T06:13:38;11.33;;;10.37;;
12956;SDS011;6543;48.836;10.092;2023-05-06T06:16:05;11.40;;;10.40;;
12956;SDS011;6543;48.836;10.092;2023-05-06T06:18:32;11.13;;;10.07;;
12956;SDS011;6543;48.836;10.092;2023-05-06T06:20:59;11.73;;;10.63;;
12956;SDS011;6543;48.836;10.092;2023-05-06T06:23:26;11.70;;;10.60;;
12956;SDS011;6543;48.836;10.092;2023-05-06T06:25:53;10.03;;;9.23;;
12956;SDS011;6543;48.836;10.092;2023-05-06T06:28:20;10.47;;;9.40;;
12956;SDS011;6543;48.836;10.092;2023-05-06T06:30:48;10.83;;;9.43;;
12956;SDS011;6543;48.836;10.092;2023-05-06T06:33:15;10.43;;;9.43;;
12956;SDS011;6543;48.836;10.092;2023-05-06T06:35:42;10.23;;;9.33;;
12956;SDS011;6543;48.836;10.092;2023-05-06T06:38:08;12.33;;;10.10;;
12956;SDS011;6543;48.836;10.092;2023-05-06T06:40:36;9.47;;;8.60;;
12956;SDS011;6543;48.836;10.092;2023-05-06T06:43:03;9.83;;;8.93;;
12956;SDS011;6543;48.836;10.092;2023-05-06T06:45:30;10.93;;;8.97;;
12956;SDS011;6543;48.836;10.092;2023-05-06T06:47:59;10.23;;;9.33;;
12956;SDS011;6543;48.836;10.092;2023-05-06T06:50:26;9.50;;;8.63;;
12956;SDS011;6543;48.836;10.092;2023-05-06T06:52:52;9.20;;;8.50;;
12956;SDS011;6543;48.836;10.092;2023-05-06T06:55:19;8.00;;;7.20;;
12956;SDS011;6543;48.836;10.092;2023-05-06T06:57:46;6.73;;;6.10;;
12956;SDS011;6543;48.836;10.092;2023-05-06T07:00:13;7.47;;;6.87;;
12956;SDS011;6543;48.836;10.092;2023-05-06T07:02:41;6.57;;;5.70;;
12956;SDS011;6543;48.836;10.092;2023-05-06T07:05:09;5.80;;;5.30;;
12956;SDS011;6543;48.836;10.092;2023-05-06T07:07:36;6.67;;;6.10;;
12956;SDS011;6543;48.836;10.092;2023-05-06T07:10:03;6.07;;;4.90;;
12956;SDS011;6543;48.836;10.092;2023-05-06T07:12:31;5.73;;;4.90;;
12956;SDS011;6543;48.836;10.092;2023-05-06T07:14:58;4.80;;;4.40;;
12956;SDS011;6543;48.836;10.092;2023-05-06T07:17:25;5.07;;;4.67;;
12956;SDS011;6543;48.836;10.092;2023-05-06T07:19:52;9.07;;;5.17;;
12956;SDS011;6543;48.836;10.092;2023-05-06T07:22:20;4.80;;;4.40;;
12956;SDS011;6543;48.836;10.092;2023-05-06T07:24:47;4.90;;;4.30;;
12956;SDS011;6543;48.836;10.092;2023-05-06T07:27:14;5.63;;;5.13;;
12956;SDS011;6543;48.836;10.092;2023-05-06T07:29:42;4.70;;;4.30;;
12956;SDS011;6543;48.836;10.092;2023-05-06T07:32:09;6.13;;;4.57;;
12956;SDS011;6543;48.836;10.092;2023-05-06T07:34:36;6.13;;;4.70;;
12956;SDS011;6543;48.836;10.092;2023-05-06T07:37:03;5.30;;;4.10;;
12956;SDS011;6543;48.836;10.092;2023-05-06T07:39:33;4.50;;;3.47;;
12956;SDS011;6543;48.836;10.092;2023-05-06T07:42:00;4.03;;;3.73;;
12956;SDS011;6543;48.836;10.092;2023-05-06T07:44:27;6.53;;;3.90;;
12956;SDS011;6543;48.836;10.092;2023-05-06T07:46:54;3.97;;;3.43;;
12956;SDS011;6543;48.836;10.092;2023-05-06T07:49:21;3.40;;;3.07;;
12956;SDS011;6543;48.836;10.092;2023-05-06T07:51:49;4.77;;;2.87;;
12956;SDS011;6543;48.836;10.092;2023-05-06T07:54:16;3.07;;;2.77;;
12956;SDS011;6543;48.836;10.092;2023-05-06T07:56:44;5.80;;;3.00;;
12956;SDS011;6543;48.836;10.092;2023-05-06T07:59:11;3.93;;;2.50;;
12956;SDS011;6543;48.836;10.092;2023-05-06T08:01:38;3.27;;;2.37;;
12956;SDS011;6543;48.836;10.092;2023-05-06T08:04:05;1.80;;;1.70;;
12956;SDS011;6543;48.836;10.092;2023-05-06T08:06:32;2.53;;;1.70;;
12956;SDS011;6543;48.836;10.092;2023-05-06T08:08:59;1.47;;;1.33;;
12956;SDS011;6543;48.836;10.092;2023-05-06T08:11:26;2.20;;;1.33;;
12956;SDS011;6543;48.836;10.092;2023-05-06T08:13:55;1.90;;;1.50;;
12956;SDS011;6543;48.836;10.092;2023-05-06T08:16:23;1.37;;;1.30;;
12956;SDS011;6543;48.836;10.092;2023-05-06T08:18:52;1.40;;;1.30;;
12956;SDS011;6543;48.836;10.092;2023-05-06T08:21:19;2.27;;;1.53;;
12956;SDS011;6543;48.836;10.092;2023-05-06T08:23:46;3.43;;;1.67;;
12956;SDS011;6543;48.836;10.092;2023-05-06T08:26:14;4.20;;;2.50;;
12956;SDS011;6543;48.836;10.092;2023-05-06T08:28:40;2.60;;;2.00;;
12956;SDS011;6543;48.836;10.092;2023-05-06T08:31:09;2.07;;;1.73;;
12956;SDS011;6543;48.836;10.092;2023-05-06T08:33:36;2.43;;;1.70;;
12956;SDS011;6543;48.836;10.092;2023-05-06T08:36:03;3.93;;;1.77;;
12956;SDS011;6543;48.836;10.092;2023-05-06T08:38:30;1.90;;;1.60;;
12956;SDS011;6543;48.836;10.092;2023-05-06T08:40:57;2.23;;;1.53;;
12956;SDS011;6543;48.836;10.092;2023-05-06T08:43:28;1.93;;;1.60;;
12956;SDS011;6543;48.836;10.092;2023-05-06T08:46:00;3.73;;;1.83;;
12956;SDS011;6543;48.836;10.092;2023-05-06T08:48:28;2.10;;;1.70;;
12956;SDS011;6543;48.836;10.092;2023-05-06T08:50:55;1.97;;;1.60;;
12956;SDS011;6543;48.836;10.092;2023-05-06T08:53:26;1.63;;;1.30;;
12956;SDS011;6543;48.836;10.092;2023-05-06T08:55:54;1.40;;;1.30;;
12956;SDS011;6543;48.836;10.092;2023-05-06T08:58:28;1.30;;;1.20;;
12956;SDS011;6543;48.836;10.092;2023-05-06T09:00:57;1.43;;;1.33;;
12956;SDS011;6543;48.836;10.092;2023-05-06T09:03:25;1.40;;;1.30;;
12956;SDS011;6543;48.836;10.092;2023-05-06T09:05:53;3.40;;;1.47;;
12956;SDS011;6543;48.836;10.092;2023-05-06T09:08:21;2.93;;;1.20;;
12956;SDS011;6543;48.836;10.092;2023-05-06T09:10:47;1.53;;;1.20;;
12956;SDS011;6543;48.836;10.092;2023-05-06T09:13:15;1.23;;;1.13;;
12956;SDS011;6543;48.836;10.092;2023-05-06T09:15:43;1.60;;;1.50;;
12956;SDS011;6543;48.836;10.092;2023-05-06T09:18:12;1.70;;;1.60;;
12956;SDS011;6543;48.836;10.092;2023-05-06T09:20:40;2.70;;;1.47;;
12956;SDS011;6543;48.836;10.092;2023-05-06T09:23:09;1.30;;;1.20;;
12956;SDS011;6543;48.836;10.092;2023-05-06T09:25:37;3.72;;;1.00;;
12956;SDS011;6543;48.836;10.092;2023-05-06T09:28:04;1.03;;;0.93;;
12956;SDS011;6543;48.836;10.092;2023-05-06T09:30:32;2.03;;;1.25;;
12956;SDS011;6543;48.836;10.092;2023-05-06T09:33:01;1.60;;;1.50;;
12956;SDS011;6543;48.836;10.092;2023-05-06T09:35:33;2.45;;;1.30;;
12956;SDS011;6543;48.836;10.092;2023-05-06T09:38:01;2.55;;;1.25;;
12956;SDS011;6543;48.836;10.092;2023-05-06T09:40:30;2.22;;;1.45;;
12956;SDS011;6543;48.836;10.092;2023-05-06T09:42:57;2.40;;;1.25;;
12956;SDS011;6543;48.836;10.092;2023-05-06T09:45:25;2.53;;;1.40;;
12956;SDS011;6543;48.836;10.092;2023-05-06T09:47:53;3.17;;;1.17;;
12956;SDS011;6543;48.836;10.092;2023-05-06T09:50:21;3.17;;;1.38;;
12956;SDS011;6543;48.836;10.092;2023-05-06T09:52:49;1.42;;;1.30;;
12956;SDS011;6543;48.836;10.092;2023-05-06T09:55:16;2.38;;;1.10;;
12956;SDS011;6543;48.836;10.092;2023-05-06T09:57:46;1.65;;;1.10;;
12956;SDS011;6543;48.836;10.092;2023-05-06T10:00:14;1.60;;;0.80;;
12956;SDS011;6543;48.836;10.092;2023-05-06T10:02:42;1.20;;;0.95;;
12956;SDS011;6543;48.836;10.092;2023-05-06T10:05:11;2.65;;;1.05;;
12956;SDS011;6543;48.836;10.092;2023-05-06T10:07:39;2.25;;;1.10;;
12956;SDS011;6543;48.836;10.092;2023-05-06T10:10:07;2.80;;;1.30;;
12956;SDS011;6543;48.836;10.092;2023-05-06T10:12:36;2.10;;;1.42;;
12956;SDS011;6543;48.836;10.092;2023-05-06T10:15:05;1.50;;;1.40;;
12956;SDS011;6543;48.836;10.092;2023-05-06T10:17:33;3.78;;;1.40;;
12956;SDS011;6543;48.836;10.092;2023-05-06T10:20:02;3.17;;;1.08;;
12956;SDS011;6543;48.836;10.092;2023-05-06T10:22:33;1.17;;;1.10;;
12956;SDS011;6543;48.836;10.092;2023-05-06T10:25:22;0.75;;;0.75;;
12956;SDS011;6543;48.836;10.092;2023-05-06T10:27:59;3.33;;;1.13;;
12956;SDS011;6543;48.836;10.092;2023-05-06T10:30:28;1.35;;;1.25;;
12956;SDS011;6543;48.836;10.092;2023-05-06T10:33:02;3.58;;;1.40;;
12956;SDS011;6543;48.836;10.092;2023-05-06T10:35:36;3.28;;;1.40;;
12956;SDS011;6543;48.836;10.092;2023-05-06T10:38:10;2.20;;;1.02;;
12956;SDS011;6543;48.836;10.092;2023-05-06T10:40:40;1.85;;;1.52;;
12956;SDS011;6543;48.836;10.092;2023-05-06T10:43:22;1.38;;;1.20;;
12956;SDS011;6543;48.836;10.092;2023-05-06T10:45:58;1.80;;;1.20;;
12956;SDS011;6543;48.836;10.092;2023-05-06T10:48:27;1.52;;;1.17;;
12956;SDS011;6543;48.836;10.092;2023-05-06T10:53:59;1.77;;;1.45;;
12956;SDS011;6543;48.836;10.092;2023-05-06T10:56:28;2.22;;;1.38;;
12956;SDS011;6543;48.836;10.092;2023-05-06T10:58:56;1.92;;;1.38;;
12956;SDS011;6543;48.836;10.092;2023-05-06T11:01:28;1.10;;;1.00;;
12956;SDS011;6543;48.836;10.092;2023-05-06T11:03:55;1.50;;;1.20;;
12956;SDS011;6543;48.836;10.092;2023-05-06T11:06:35;1.17;;;1.10;;
12956;SDS011;6543;48.836;10.092;2023-05-06T11:09:04;3.85;;;1.17;;
12956;SDS011;6543;48.836;10.092;2023-05-06T11:11:47;1.83;;;1.20;;
12956;SDS011;6543;48.836;10.092;2023-05-06T11:14:24;2.92;;;1.40;;
12956;SDS011;6543;48.836;10.092;2023-05-06T11:16:54;2.10;;;1.17;;
12956;SDS011;6543;48.836;10.092;2023-05-06T11:19:22;3.80;;;1.20;;
12956;SDS011;6543;48.836;10.092;2023-05-06T11:21:51;3.45;;;1.73;;
12956;SDS011;6543;48.836;10.092;2023-05-06T11:24:22;2.92;;;1.40;;
12956;SDS011;6543;48.836;10.092;2023-05-06T11:26:53;2.38;;;1.17;;
12956;SDS011;6543;48.836;10.092;2023-05-06T11:29:21;1.85;;;1.25;;
12956;SDS011;6543;48.836;10.092;2023-05-06T11:31:49;1.30;;;1.20;;
12956;SDS011;6543;48.836;10.092;2023-05-06T11:34:23;2.45;;;0.90;;
12956;SDS011;6543;48.836;10.092;2023-05-06T11:36:54;1.48;;;0.88;;
12956;SDS011;6543;48.836;10.092;2023-05-06T11:39:24;4.07;;;0.90;;
12956;SDS011;6543;48.836;10.092;2023-05-06T11:41:54;1.40;;;1.02;;
12956;SDS011;6543;48.836;10.092;2023-05-06T11:44:26;3.10;;;1.30;;
12956;SDS011;6543;48.836;10.092;2023-05-06T11:46:58;1.50;;;1.33;;
12956;SDS011;6543;48.836;10.092;2023-05-06T11:49:27;4.82;;;1.25;;
12956;SDS011;6543;48.836;10.092;2023-05-06T11:51:55;3.35;;;1.02;;
12956;SDS011;6543;48.836;10.092;2023-05-06T11:54:25;2.97;;;1.10;;
12956;SDS011;6543;48.836;10.092;2023-05-06T11:56:53;1.90;;;1.17;;
12956;SDS011;6543;48.836;10.092;2023-05-06T11:59:25;1.35;;;1.20;;
12956;SDS011;6543;48.836;10.092;2023-05-06T12:01:55;2.00;;;1.20;;
12956;SDS011;6543;48.836;10.092;2023-05-06T12:04:23;4.68;;;1.20;;
12956;SDS011;6543;48.836;10.092;2023-05-06T12:06:52;3.88;;;1.98;;
12956;SDS011;6543;48.836;10.092;2023-05-06T12:09:19;1.48;;;1.25;;
12956;SDS011;6543;48.836;10.092;2023-05-06T12:11:48;5.20;;;1.80;;
12956;SDS011;6543;48.836;10.092;2023-05-06T12:14:17;3.45;;;1.40;;
12956;SDS011;6543;48.836;10.092;2023-05-06T12:16:44;3.22;;;1.40;;
12956;SDS011;6543;48.836;10.092;2023-05-06T12:19:17;3.15;;;1.80;;
12956;SDS011;6543;48.836;10.092;2023-05-06T12:21:44;1.60;;;1.20;;
12956;SDS011;6543;48.836;10.092;2023-05-06T12:24:12;1.85;;;0.98;;
12956;SDS011;6543;48.836;10.092;2023-05-06T12:26:43;2.05;;;1.00;;
12956;SDS011;6543;48.836;10.092;2023-05-06T12:29:12;2.90;;;1.13;;
12956;SDS011;6543;48.836;10.092;2023-05-06T12:31:41;2.33;;;0.80;;
12956;SDS011;6543;48.836;10.092;2023-05-06T12:34:11;3.92;;;1.27;;
12956;SDS011;6543;48.836;10.092;2023-05-06T12:36:38;2.20;;;1.10;;
12956;SDS011;6543;48.836;10.092;2023-05-06T12:39:19;1.27;;;0.90;;
12956;SDS011;6543;48.836;10.092;2023-05-06T12:44:34;2.38;;;1.00;;
12956;SDS011;6543;48.836;10.092;2023-05-06T12:47:03;1.75;;;1.00;;
12956;SDS011;6543;48.836;10.092;2023-05-06T12:49:45;1.40;;;0.70;;
12956;SDS011;6543;48.836;10.092;2023-05-06T12:52:13;1.73;;;1.02;;
12956;SDS011;6543;48.836;10.092;2023-05-06T12:54:42;2.33;;;0.80;;
12956;SDS011;6543;48.836;10.092;2023-05-06T12:57:09;1.42;;;0.77;;
12956;SDS011;6543;48.836;10.092;2023-05-06T12:59:36;0.80;;;0.50;;
12956;SDS011;6543;48.836;10.092;2023-05-06T13:02:04;3.08;;;0.80;;
12956;SDS011;6543;48.836;10.092;2023-05-06T13:04:31;1.05;;;0.95;;
12956;SDS011;6543;48.836;10.092;2023-05-06T13:06:58;1.17;;;1.02;;
12956;SDS011;6543;48.836;10.092;2023-05-06T13:09:25;1.23;;;0.70;;
12956;SDS011;6543;48.836;10.092;2023-05-06T13:11:54;1.35;;;1.00;;
12956;SDS011;6543;48.836;10.092;2023-05-06T13:14:21;1.02;;;0.90;;
12956;SDS011;6543;48.836;10.092;2023-05-06T13:16:48;3.35;;;1.17;;
12956;SDS011;6543;48.836;10.092;2023-05-06T13:19:15;1.05;;;0.93;;
12956;SDS011;6543;48.836;10.092;2023-05-06T13:21:42;1.27;;;0.70;;
12956;SDS011;6543;48.836;10.092;2023-05-06T13:24:10;0.95;;;0.70;;
12956;SDS011;6543;48.836;10.092;2023-05-06T13:26:37;1.52;;;0.77;;
12956;SDS011;6543;48.836;10.092;2023-05-06T13:29:06;0.90;;;0.90;;
12956;SDS011;6543;48.836;10.092;2023-05-06T13:31:33;0.77;;;0.77;;
12956;SDS011;6543;48.836;10.092;2023-05-06T13:34:00;1.02;;;0.65;;
12956;SDS011;6543;48.836;10.092;2023-05-06T13:36:28;1.23;;;0.70;;
12956;SDS011;6543;48.836;10.092;2023-05-06T13:38:55;0.90;;;0.90;;
12956;SDS011;6543;48.836;10.092;2023-05-06T13:41:22;0.70;;;0.70;;
12956;SDS011;6543;48.836;10.092;2023-05-06T13:43:49;1.25;;;0.70;;
12956;SDS011;6543;48.836;10.092;2023-05-06T13:46:18;1.00;;;0.80;;
12956;SDS011;6543;48.836;10.092;2023-05-06T13:48:45;1.23;;;1.10;;
12956;SDS011;6543;48.836;10.092;2023-05-06T13:51:12;1.85;;;0.93;;
12956;SDS011;6543;48.836;10.092;2023-05-06T13:53:40;0.88;;;0.68;;
12956;SDS011;6543;48.836;10.092;2023-05-06T13:56:07;1.85;;;1.05;;
12956;SDS011;6543;48.836;10.092;2023-05-06T13:58:34;1.05;;;0.60;;
12956;SDS011;6543;48.836;10.092;2023-05-06T14:01:01;0.82;;;0.80;;
12956;SDS011;6543;48.836;10.092;2023-05-06T14:03:29;1.88;;;0.90;;
12956;SDS011;6543;48.836;10.092;2023-05-06T14:05:57;1.23;;;0.70;;
12956;SDS011;6543;48.836;10.092;2023-05-06T14:08:24;1.05;;;0.80;;
12956;SDS011;6543;48.836;10.092;2023-05-06T14:10:50;2.03;;;0.98;;
12956;SDS011;6543;48.836;10.092;2023-05-06T14:13:17;1.45;;;0.90;;
12956;SDS011;6543;48.836;10.092;2023-05-06T14:15:44;1.38;;;1.27;;
12956;SDS011;6543;48.836;10.092;2023-05-06T14:18:11;1.88;;;1.48;;
12956;SDS011;6543;48.836;10.092;2023-05-06T14:20:43;3.67;;;2.78;;
12956;SDS011;6543;48.836;10.092;2023-05-06T14:23:10;4.88;;;1.60;;
12956;SDS011;6543;48.836;10.092;2023-05-06T14:25:37;1.27;;;1.02;;
12956;SDS011;6543;48.836;10.092;2023-05-06T14:28:04;3.83;;;0.82;;
12956;SDS011;6543;48.836;10.092;2023-05-06T14:30:31;1.77;;;1.20;;
12956;SDS011;6543;48.836;10.092;2023-05-06T14:32:58;2.08;;;0.95;;
12956;SDS011;6543;48.836;10.092;2023-05-06T14:35:25;2.45;;;0.52;;
12956;SDS011;6543;48.836;10.092;2023-05-06T14:37:53;2.92;;;0.57;;
12956;SDS011;6543;48.836;10.092;2023-05-06T14:40:20;3.05;;;0.45;;
12956;SDS011;6543;48.836;10.092;2023-05-06T14:42:47;1.17;;;0.77;;
12956;SDS011;6543;48.836;10.092;2023-05-06T14:45:14;2.42;;;1.02;;
12956;SDS011;6543;48.836;10.092;2023-05-06T14:47:41;2.45;;;1.50;;